This is the latest recevied weather packets stored in our database for station/object OK9CPU-9. If no packets are shown the sender has not sent any weather packets the latest 10 day(s).
| Time | Temp. | Humidity | Pressure | Rain* | Wind** | Luminosity | Snow |
|---|---|---|---|---|---|---|---|
| 1788210774 | 18.89° C | 34% | 1018 hPa | - | - | - | - |
| 1788209779 | 18.89° C | 35% | 1017.8 hPa | - | - | - | - |
| 1788208784 | 18.89° C | 35% | 1017.2 hPa | - | - | - | - |
| 1788206794 | 20° C | 35% | 1016.4 hPa | - | - | - | - |
| 1788205799 | 20° C | 34% | 1016.2 hPa | - | - | - | - |
| 1788203809 | 20.56° C | 34% | 1016 hPa | - | - | - | - |
| 1788201818 | 21.11° C | 35% | 1015.9 hPa | - | - | - | - |
| 1788200823 | 21.67° C | 35% | 1015.6 hPa | - | - | - | - |
| 1788199828 | 21.67° C | 35% | 1015.3 hPa | - | - | - | - |
| 1788197838 | 23.33° C | 34% | 1014.9 hPa | - | - | - | - |
| 1788196843 | 24.44° C | 34% | 1014.8 hPa | - | - | - | - |
| 1788195848 | 25.56° C | 33% | 1014.9 hPa | - | - | - | - |
| 1788183908 | 33.33° C | 22% | 1015.1 hPa | - | - | - | - |
| 1788174953 | 28.89° C | 23% | 1015.9 hPa | - | - | - | - |
| 1788165002 | 22.22° C | 28% | 1015.2 hPa | - | - | - | - |
| 1788164007 | 22.22° C | 28% | 1015.1 hPa | - | - | - | - |
| 1788163012 | 22.78° C | 28% | 1015.3 hPa | - | - | - | - |
| 1788162017 | 23.33° C | 27% | 1015.1 hPa | - | - | - | - |
| 1788161022 | 23.89° C | 26% | 1014.8 hPa | - | - | - | - |
| 1788160027 | 24.44° C | 25% | 1014.9 hPa | - | - | - | - |
| 1788154057 | 22.22° C | 25% | 1015 hPa | - | - | - | - |
| 1788146097 | 17.78° C | 31% | 1014.7 hPa | - | - | - | - |
| 1788144106 | 17.78° C | 31% | 1015 hPa | - | - | - | - |
| 1788121221 | 21.67° C | 33% | 1015.6 hPa | - | - | - | - |
| 1788120226 | 21.67° C | 33% | 1015.6 hPa | - | - | - | - |
* Rain since midnight (hover to see other rain measurements)
** Current wind speed in m/s (hover to see current wind gust speed)